• Join FlightAware (Why Join?)
  • Login
  • US Flag 
10:30PM EDT


 

Airport Tracker/Info


-or-


 

Live Flight TrackerFlight Track Log ✈ N1732M ✈ 07-Nov-2013 ✈ KMLB - KMLB

Flight Track Log - Related Links

Times and Time Zones

All times are in EST time to prevent confusion due to time zone crossing. See the N1732M flight status page for this flight to view local times or setup timezone preferences in your user account.

Time Position Orientation Groundspeed Altitude Reporting Facility
EST Latitude Longitude Course Direction KTS MPH feet Rate Location/Type
02:05PM 28.1000 -80.6500 60° Northeast 89 102 400  Level Orlando TRACON
02:05PM 28.1167 -80.6167 60° Northeast 99 114 700 480 Climbing Orlando TRACON
02:06PM 28.1167 -80.6000 90° East 111 128 1,200 480 Climbing Orlando TRACON
02:07PM 28.1333 -80.5500 69° East 120 138 1,700 420 Climbing Orlando TRACON
02:08PM 28.1333 -80.5167 90° East 120 138 2,100 480 Climbing Orlando TRACON
02:09PM 28.1667 -80.5000 24° Northeast 98 113 2,700 540 Climbing Orlando TRACON
02:10PM 28.1833 -80.5000 360° North 108 124 3,300 120 Climbing Orlando TRACON
02:11PM 28.1667 -80.5333 240° Southwest 126 145 3,000 -180 Descending Orlando TRACON
02:12PM 28.1667 -80.5833 270° West 113 130 3,000  Level Orlando TRACON
02:13PM 28.1667 -80.6167 270° West 106 122 3,100  Climbing Orlando TRACON
02:14PM 28.1667 -80.6500 270° West 112 129 3,100  Level Orlando TRACON
02:15PM 28.1833 -80.6833 300° West 119 137 3,200  Climbing Orlando TRACON
02:16PM 28.1833 -80.7167 270° West 120 138 3,200 -120 Level Orlando TRACON
02:17PM 28.2000 -80.7500 300° West 112 129 3,000 -420 Descending Orlando TRACON
02:18PM 28.2167 -80.7667 319° Northwest 102 117 2,400 -420 Descending Orlando TRACON
02:19PM 28.2500 -80.7833 336° Northwest 93 107 2,200 -120 Descending Orlando TRACON
02:20PM 28.2667 -80.7833 360° North 90 104 2,200  Level Orlando TRACON
02:21PM 28.3000 -80.8000 336° Northwest 101 116 2,200  Level Orlando TRACON
02:22PM 28.3167 -80.8000 360° North 92 106 2,200  Level Orlando TRACON
02:23PM 28.3500 -80.8000 360° North 95 109 2,200  Level Orlando TRACON
02:24PM 28.3833 -80.8000 360° North 99 114 2,200  Level Orlando TRACON
02:25PM 28.4000 -80.8000 360° North 98 113 2,200 -240 Level Orlando TRACON
02:26PM 28.4333 -80.8000 360° North 106 122 1,700 -600 Descending Orlando TRACON
02:27PM 28.4667 -80.8000 360° North 104 120 1,000 -660 Descending Orlando TRACON
02:28PM 28.4833 -80.8000 360° North 99 114 500  Descending Orlando TRACON
02:29PM 28.5167 -80.8000 360° North 92 106 1,100 600 Climbing Orlando TRACON
02:30PM 28.5000 -80.8333 240° Southwest 99 114 1,700 540 Climbing Orlando TRACON
02:31PM 28.4833 -80.8333 180° South 114 131 2,200 480 Climbing Orlando TRACON
02:32PM 28.4333 -80.8333 180° South 117 135 2,800 420 Climbing Orlando TRACON
02:33PM 28.4000 -80.8333 180° South 118 136 3,100 120 Climbing Orlando TRACON
02:34PM 28.3667 -80.8167 156° South 144 166 3,100  Level Orlando TRACON
02:35PM 28.3333 -80.8000 156° South 140 161 3,200  Climbing Orlando TRACON
02:36PM 28.3000 -80.7833 156° South 136 157 3,100 -60 Descending Orlando TRACON
02:37PM 28.2667 -80.7500 139° Southeast 133 153 3,100  Level Orlando TRACON
02:38PM 28.2333 -80.7333 156° South 133 153 3,100  Level Orlando TRACON
02:39PM 28.2167 -80.7000 120° Southeast 133 153 3,100 -60 Level Orlando TRACON
02:41PM 28.1833 -80.6833 156° South 130 150 3,000  Descending Orlando TRACON
02:42PM 28.1500 -80.6500 139° Southeast 125 144 3,200 60 Climbing Orlando TRACON
02:43PM 28.1167 -80.6333 156° South 136 157 3,200 -60 Level Orlando TRACON
02:44PM 28.0833 -80.6500 204° Southwest 130 150 3,100 -60 Descending Orlando TRACON
02:45PM 28.1000 -80.7167 286° West 112 129 3,100  Level Orlando TRACON
02:46PM 28.0833 -80.7500 240° Southwest 127 146 3,200  Climbing Orlando TRACON
02:47PM 28.0667 -80.7667 221° Southwest 126 145 3,100  Descending Orlando TRACON
02:48PM 28.0833 -80.7333 60° Northeast 129 148 3,200  Climbing Orlando TRACON
02:49PM 28.0500 -80.7500 204° Southwest 122 140 3,100 -120 Descending Orlando TRACON
02:50PM 28.0500 -80.7833 270° West 114 131 3,000 -360 Descending Orlando TRACON
02:51PM 28.0667 -80.7833 360° North 111 128 2,400 -660 Descending Orlando TRACON
02:52PM 28.0833 -80.7500 60° Northeast 121 139 1,700 -720 Descending Orlando TRACON
02:53PM 28.1000 -80.7167 60° Northeast 116 133 1,000 -720 Descending Orlando TRACON